createdAt,value
2023-12-22T00:00:48.731Z,83.64
2023-12-22T00:03:51.348Z,83.37
2023-12-22T00:06:53.685Z,83.39
2023-12-22T00:09:55.949Z,83.68
2023-12-22T00:12:58.222Z,83.82
2023-12-22T00:16:01.485Z,84.01
2023-12-22T00:19:04.882Z,84.31
2023-12-22T00:22:07.267Z,84.59
2023-12-22T00:25:11.026Z,84.06
2023-12-22T00:28:13.411Z,83.73
2023-12-22T00:31:15.691Z,83.01
2023-12-22T00:34:19.816Z,82.84
2023-12-22T00:37:22.114Z,82.10
2023-12-22T00:40:24.618Z,81.24
2023-12-22T00:43:26.882Z,80.85
2023-12-22T00:46:29.167Z,80.95
2023-12-22T00:49:31.749Z,80.48
2023-12-22T00:52:34.220Z,80.61
2023-12-22T00:55:36.587Z,80.74
2023-12-22T00:58:38.837Z,80.19
2023-12-22T01:01:41.186Z,80.28
2023-12-22T01:04:43.887Z,80.35
2023-12-22T01:07:46.582Z,80.28
2023-12-22T01:10:49.314Z,80.52
2023-12-22T01:13:51.644Z,80.33
2023-12-22T01:16:54.056Z,80.00
2023-12-22T01:19:56.568Z,79.25
2023-12-22T01:22:58.963Z,79.06
2023-12-22T01:26:02.011Z,78.32
2023-12-22T01:29:04.714Z,78.29
2023-12-22T01:32:07.380Z,77.88
2023-12-22T01:35:11.501Z,77.49
2023-12-22T01:38:13.928Z,78.09
2023-12-22T01:41:16.302Z,78.88
2023-12-22T01:44:18.578Z,81.41
2023-12-22T01:47:21.336Z,84.21
2023-12-22T01:50:23.970Z,85.98
2023-12-22T01:53:27.670Z,87.27
2023-12-22T01:56:30.157Z,88.34
2023-12-22T01:59:35.694Z,89.34
2023-12-22T02:02:39.499Z,90.41
2023-12-22T02:05:51.398Z,91.04
2023-12-22T02:08:55.043Z,91.51
2023-12-22T02:11:57.343Z,91.93
2023-12-22T02:14:59.912Z,92.66
2023-12-22T02:18:10.326Z,93.25
2023-12-22T02:21:12.636Z,93.85
2023-12-22T02:24:14.972Z,94.99
2023-12-22T02:27:39.451Z,95.80
2023-12-22T02:30:56.990Z,96.70
2023-12-22T02:34:01.276Z,96.93
2023-12-22T02:37:09.434Z,97.32
2023-12-22T02:40:12.568Z,97.33
2023-12-22T02:43:15.017Z,98.19
2023-12-22T02:46:24.406Z,98.88
2023-12-22T02:49:26.833Z,98.82
2023-12-22T02:52:29.443Z,98.77
2023-12-22T02:55:31.855Z,98.92
2023-12-22T02:58:34.281Z,99.33
2023-12-22T03:01:36.771Z,99.62
2023-12-22T03:04:39.059Z,99.76
2023-12-22T03:07:41.407Z,99.51
2023-12-22T03:10:43.731Z,99.13
2023-12-22T03:13:46.038Z,98.21
2023-12-22T03:16:48.366Z,97.22
2023-12-22T03:19:50.734Z,96.60
2023-12-22T03:22:53.040Z,95.90
2023-12-22T03:25:55.467Z,95.08
2023-12-22T03:28:57.767Z,95.04
2023-12-22T03:32:00.215Z,94.75
2023-12-22T03:35:02.620Z,94.37
2023-12-22T03:38:05.062Z,93.85
2023-12-22T03:41:07.488Z,93.81
2023-12-22T03:44:10.214Z,93.82
2023-12-22T03:47:12.609Z,93.73
2023-12-22T03:50:14.943Z,93.90
2023-12-22T03:53:17.815Z,93.52
2023-12-22T03:56:20.292Z,93.39
2023-12-22T03:59:22.759Z,93.46
2023-12-22T04:02:25.005Z,92.99
2023-12-22T04:05:27.271Z,93.46
2023-12-22T04:08:29.546Z,93.24
2023-12-22T04:11:31.944Z,92.36
2023-12-22T04:14:34.235Z,92.04
2023-12-22T04:17:36.507Z,92.43
2023-12-22T04:20:38.910Z,93.00
2023-12-22T04:23:41.176Z,92.81
2023-12-22T04:26:43.448Z,91.88
2023-12-22T04:29:45.666Z,91.09
2023-12-22T04:32:48.009Z,91.21
2023-12-22T04:35:50.270Z,91.98
2023-12-22T04:38:52.518Z,92.43
2023-12-22T04:41:54.729Z,92.63
2023-12-22T04:44:57.012Z,92.73
2023-12-22T04:47:59.821Z,92.27
2023-12-22T04:51:02.259Z,91.91
2023-12-22T04:54:04.580Z,91.75
2023-12-22T04:57:06.901Z,91.52
2023-12-22T05:00:09.589Z,91.85
2023-12-22T05:03:11.905Z,91.98
2023-12-22T05:06:14.262Z,92.06
2023-12-22T05:09:17.529Z,92.20
2023-12-22T05:12:20.971Z,91.69
2023-12-22T05:15:23.219Z,91.25
2023-12-22T05:18:25.801Z,91.14
2023-12-22T05:21:31.406Z,90.87
2023-12-22T05:24:33.724Z,90.67
2023-12-22T05:27:36.137Z,90.47
2023-12-22T05:30:38.367Z,89.81
2023-12-22T05:33:40.725Z,89.15
2023-12-22T05:36:42.978Z,88.38
2023-12-22T05:39:46.318Z,88.41
2023-12-22T05:42:48.553Z,87.87
2023-12-22T05:45:50.837Z,87.55
2023-12-22T05:48:55.452Z,87.96
2023-12-22T05:51:59.817Z,87.57
2023-12-22T05:55:02.107Z,87.05
2023-12-22T05:58:04.562Z,87.08
2023-12-22T06:01:06.875Z,87.32
2023-12-22T06:04:09.454Z,87.76
2023-12-22T06:07:12.346Z,87.62
2023-12-22T06:10:14.685Z,87.69
2023-12-22T06:13:16.936Z,87.77
2023-12-22T06:16:19.876Z,87.89
2023-12-22T06:19:23.305Z,88.12
2023-12-22T06:22:25.630Z,87.92
2023-12-22T06:25:28.359Z,88.30
2023-12-22T06:28:30.727Z,88.44
2023-12-22T06:31:33.183Z,89.07
2023-12-22T06:34:35.632Z,89.28
2023-12-22T06:37:37.966Z,89.40
2023-12-22T06:40:40.388Z,89.30
2023-12-22T06:43:42.722Z,89.02
2023-12-22T06:46:45.116Z,89.14
2023-12-22T06:49:47.529Z,88.25
2023-12-22T06:52:51.169Z,88.66
2023-12-22T06:55:53.636Z,88.16
2023-12-22T06:58:58.707Z,87.97
2023-12-22T07:02:09.749Z,87.75
2023-12-22T07:05:22.463Z,86.23
2023-12-22T07:08:31.476Z,86.21
2023-12-22T07:11:37.952Z,85.78
2023-12-22T07:14:40.702Z,86.07
2023-12-22T07:17:43.882Z,85.93
2023-12-22T07:20:46.431Z,85.53
2023-12-22T07:23:48.690Z,86.49
2023-12-22T07:26:50.947Z,86.65
2023-12-22T07:29:53.178Z,86.08
2023-12-22T07:32:55.467Z,83.30
2023-12-22T07:35:57.827Z,79.56
2023-12-22T07:39:00.533Z,76.33
2023-12-22T07:42:02.799Z,75.66
2023-12-22T07:45:06.229Z,77.41
2023-12-22T07:48:08.791Z,78.28
2023-12-22T07:51:11.129Z,79.68
2023-12-22T07:54:13.373Z,75.82
2023-12-22T07:57:15.662Z,72.02
2023-12-22T08:00:19.278Z,68.34
2023-12-22T08:03:21.557Z,67.04
2023-12-22T08:06:23.934Z,65.22
2023-12-22T08:09:26.297Z,65.58
2023-12-22T08:12:29.209Z,66.99
2023-12-22T08:15:36.788Z,64.34
2023-12-22T08:18:39.764Z,63.26
2023-12-22T08:21:46.359Z,61.31
2023-12-22T08:24:50.603Z,61.35
2023-12-22T08:27:53.261Z,62.42
2023-12-22T08:30:55.563Z,65.09
2023-12-22T08:33:58.028Z,62.80
2023-12-22T08:37:01.906Z,61.50
2023-12-22T08:40:05.004Z,59.57
2023-12-22T08:43:07.652Z,59.34
2023-12-22T08:46:11.037Z,62.35
2023-12-22T08:49:20.956Z,59.02
2023-12-22T08:52:23.297Z,58.44
2023-12-22T08:55:26.012Z,56.51
2023-12-22T08:58:28.618Z,58.42
2023-12-22T09:01:31.542Z,58.44
2023-12-22T09:04:33.915Z,57.62
2023-12-22T09:07:36.251Z,59.23
2023-12-22T09:10:38.843Z,60.40
2023-12-22T09:13:41.333Z,61.05
2023-12-22T09:16:45.670Z,62.11
2023-12-22T09:19:47.982Z,64.26
2023-12-22T09:22:50.558Z,59.59
2023-12-22T09:25:53.110Z,59.92
2023-12-22T09:28:56.495Z,56.12
2023-12-22T09:31:59.861Z,58.26
2023-12-22T09:35:02.719Z,60.40
2023-12-22T09:38:05.164Z,61.86
2023-12-22T09:41:07.731Z,60.61
2023-12-22T09:44:10.445Z,59.74
2023-12-22T09:47:14.357Z,59.55
2023-12-22T09:50:17.173Z,59.70
2023-12-22T09:53:20.759Z,58.80
2023-12-22T09:56:25.270Z,58.10
2023-12-22T09:59:30.027Z,57.99
2023-12-22T10:02:34.486Z,55.29
2023-12-22T10:05:37.077Z,54.45
2023-12-22T10:08:40.684Z,54.83
2023-12-22T10:11:45.015Z,54.67
2023-12-22T10:14:48.939Z,51.85
2023-12-22T10:17:52.633Z,51.12
2023-12-22T10:20:55.685Z,51.45
2023-12-22T10:23:58.716Z,51.07
2023-12-22T10:27:01.776Z,51.87
2023-12-22T10:30:05.101Z,52.19
2023-12-22T10:33:08.332Z,50.77
2023-12-22T10:36:11.164Z,48.22
2023-12-22T10:39:13.924Z,48.24
2023-12-22T10:42:16.293Z,46.34
2023-12-22T10:45:19.860Z,45.10
2023-12-22T10:48:23.705Z,45.38
2023-12-22T10:51:29.171Z,45.96
2023-12-22T10:54:32.175Z,50.08
2023-12-22T10:57:39.588Z,51.33
2023-12-22T11:00:44.630Z,52.91
2023-12-22T11:03:51.572Z,52.08
2023-12-22T11:06:58.221Z,51.87
2023-12-22T11:10:05.669Z,53.75
2023-12-22T11:13:09.554Z,55.15
2023-12-22T11:16:12.861Z,56.22
2023-12-22T11:19:16.230Z,56.98
2023-12-22T11:22:20.087Z,58.13
2023-12-22T11:25:23.753Z,58.96
2023-12-22T11:28:26.568Z,59.46
2023-12-22T11:31:33.412Z,59.75
2023-12-22T11:34:37.896Z,61.12
2023-12-22T11:37:40.834Z,61.24
2023-12-22T11:40:43.354Z,61.44
2023-12-22T11:43:46.722Z,61.26
2023-12-22T11:46:49.463Z,61.26
2023-12-22T11:49:52.026Z,62.07
2023-12-22T11:52:54.768Z,61.68
2023-12-22T11:56:01.147Z,62.46
2023-12-22T11:59:03.597Z,62.76
2023-12-22T12:02:09.476Z,63.40
2023-12-22T12:05:14.254Z,63.69
2023-12-22T12:08:16.774Z,62.44
2023-12-22T12:11:19.679Z,61.03
2023-12-22T12:14:32.528Z,61.05
2023-12-22T12:17:38.792Z,62.22
2023-12-22T12:20:41.091Z,61.84
2023-12-22T12:23:43.779Z,58.36
2023-12-22T12:26:46.062Z,53.96
2023-12-22T12:29:48.440Z,50.30
2023-12-22T12:32:51.362Z,52.56
2023-12-22T12:35:57.100Z,54.53
2023-12-22T12:39:08.674Z,55.81
2023-12-22T12:42:16.349Z,58.23
2023-12-22T12:45:24.544Z,58.86
2023-12-22T12:48:27.070Z,59.81
2023-12-22T12:51:29.463Z,59.69
2023-12-22T12:54:32.792Z,55.96
2023-12-22T12:57:35.054Z,56.29
2023-12-22T13:00:37.449Z,50.50
2023-12-22T13:03:55.983Z,46.88
2023-12-22T13:07:00.362Z,46.03
2023-12-22T13:10:02.766Z,45.54
2023-12-22T13:13:05.654Z,43.69
2023-12-22T13:16:08.216Z,43.58
2023-12-22T13:19:10.857Z,43.31
2023-12-22T13:22:13.561Z,43.05
2023-12-22T13:25:16.178Z,42.43
2023-12-22T13:28:29.762Z,42.09
2023-12-22T13:31:33.435Z,42.73
2023-12-22T13:34:42.449Z,42.62
2023-12-22T13:37:44.872Z,44.47
2023-12-22T13:40:48.173Z,46.43
2023-12-22T13:43:50.757Z,48.41
2023-12-22T13:46:53.616Z,48.04
2023-12-22T13:49:56.195Z,52.44
2023-12-22T13:53:08.974Z,53.57
2023-12-22T13:56:13.042Z,56.21
2023-12-22T13:59:15.395Z,58.86
2023-12-22T14:02:17.771Z,60.33
2023-12-22T14:05:20.686Z,61.94
2023-12-22T14:08:23.070Z,63.51
2023-12-22T14:11:25.533Z,64.57
2023-12-22T14:14:27.809Z,65.55
2023-12-22T14:17:31.901Z,65.72
2023-12-22T14:20:34.922Z,65.70
2023-12-22T14:23:37.274Z,65.72
2023-12-22T14:26:55.944Z,66.10
2023-12-22T14:29:58.345Z,66.92
2023-12-22T14:33:01.066Z,67.32
2023-12-22T14:36:03.918Z,66.77
2023-12-22T14:39:06.515Z,67.02
2023-12-22T14:42:08.907Z,67.12
2023-12-22T14:45:11.292Z,67.33
2023-12-22T14:48:13.875Z,67.21
2023-12-22T14:51:16.282Z,67.67
2023-12-22T14:54:19.100Z,67.76
2023-12-22T14:57:22.011Z,68.12
2023-12-22T15:00:24.398Z,68.74
2023-12-22T15:03:26.796Z,69.06
2023-12-22T15:06:32.604Z,69.23
2023-12-22T15:09:35.942Z,69.37
2023-12-22T15:12:39.163Z,69.41
2023-12-22T15:15:41.536Z,70.32
2023-12-22T15:18:43.801Z,69.98
2023-12-22T15:21:46.120Z,70.76
2023-12-22T15:24:48.382Z,70.98
2023-12-22T15:27:50.948Z,70.90
2023-12-22T15:30:53.469Z,71.16
2023-12-22T15:33:56.514Z,71.08
2023-12-22T15:36:58.780Z,70.39
2023-12-22T15:40:01.109Z,70.24
2023-12-22T15:43:03.488Z,70.66
2023-12-22T15:46:12.241Z,70.91
2023-12-22T15:49:14.566Z,71.67
2023-12-22T15:52:16.977Z,71.66
2023-12-22T15:55:19.233Z,71.72
2023-12-22T15:58:21.505Z,71.61
2023-12-22T16:01:23.874Z,71.91
2023-12-22T16:04:26.251Z,71.93
2023-12-22T16:07:28.555Z,72.14
2023-12-22T16:10:30.904Z,72.38
2023-12-22T16:13:34.378Z,72.44
2023-12-22T16:16:36.740Z,72.86
2023-12-22T16:19:40.638Z,72.79
2023-12-22T16:22:43.688Z,72.73
2023-12-22T16:25:46.856Z,72.00
2023-12-22T16:28:49.251Z,71.56
2023-12-22T16:31:51.570Z,72.13
2023-12-22T16:34:53.902Z,72.28
2023-12-22T16:37:56.232Z,71.51
2023-12-22T16:41:00.678Z,71.18
2023-12-22T16:44:03.045Z,70.58
2023-12-22T16:47:05.669Z,70.14
2023-12-22T16:50:08.805Z,68.84
2023-12-22T16:53:11.733Z,68.16
2023-12-22T16:56:14.048Z,68.24
2023-12-22T16:59:16.441Z,67.96
2023-12-22T17:02:28.004Z,66.28
2023-12-22T17:05:35.829Z,66.19
2023-12-22T17:08:38.562Z,65.29
2023-12-22T17:11:41.039Z,64.68
2023-12-22T17:14:43.282Z,64.72
2023-12-22T17:17:45.705Z,64.08
2023-12-22T17:20:56.322Z,63.86
2023-12-22T17:24:02.079Z,65.02
2023-12-22T17:27:04.569Z,64.80
2023-12-22T17:30:07.377Z,65.65
2023-12-22T17:33:09.679Z,66.10
2023-12-22T17:36:11.977Z,66.46
2023-12-22T17:39:14.204Z,66.09
2023-12-22T17:42:16.456Z,67.20
2023-12-22T17:45:18.682Z,67.21
2023-12-22T17:48:21.135Z,67.87
2023-12-22T17:51:30.506Z,68.25
2023-12-22T17:54:32.917Z,68.23
2023-12-22T17:57:35.156Z,68.64
2023-12-22T18:00:37.416Z,68.90
2023-12-22T18:03:39.672Z,69.10
2023-12-22T18:06:42.258Z,69.57
2023-12-22T18:09:44.553Z,70.09
2023-12-22T18:12:47.015Z,69.94
2023-12-22T18:15:49.429Z,70.74
2023-12-22T18:18:51.844Z,70.70
2023-12-22T18:21:54.153Z,71.58
2023-12-22T18:24:56.463Z,72.79
2023-12-22T18:27:58.769Z,73.56
2023-12-22T18:31:01.185Z,74.58
2023-12-22T18:34:05.255Z,75.65
2023-12-22T18:37:07.777Z,77.12
2023-12-22T18:40:14.087Z,77.94
2023-12-22T18:43:16.437Z,78.94
2023-12-22T18:46:18.691Z,80.20
2023-12-22T18:49:21.630Z,81.44
2023-12-22T18:52:24.042Z,82.18
2023-12-22T18:55:26.273Z,82.75
2023-12-22T18:58:30.260Z,83.22
2023-12-22T19:01:43.498Z,84.15
2023-12-22T19:04:52.383Z,84.30
2023-12-22T19:07:55.544Z,85.37
2023-12-22T19:10:57.918Z,85.77
2023-12-22T19:14:00.279Z,86.72
2023-12-22T19:17:02.577Z,87.96
2023-12-22T19:20:08.860Z,88.71
2023-12-22T19:23:11.254Z,89.20
2023-12-22T19:26:13.623Z,90.06
2023-12-22T19:29:16.133Z,89.73
2023-12-22T19:32:19.024Z,91.02
2023-12-22T19:35:21.599Z,91.56
2023-12-22T19:38:24.417Z,91.89
2023-12-22T19:41:31.942Z,92.54
2023-12-22T19:44:34.208Z,92.45
2023-12-22T19:47:36.878Z,92.95
2023-12-22T19:50:39.713Z,93.34
2023-12-22T19:53:42.196Z,93.90
2023-12-22T19:56:44.504Z,93.83
2023-12-22T19:59:46.762Z,94.72
2023-12-22T20:02:49.239Z,94.81
2023-12-22T20:05:51.864Z,94.58
2023-12-22T20:08:54.258Z,94.88
2023-12-22T20:11:58.632Z,95.53
2023-12-22T20:15:04.596Z,95.21
2023-12-22T20:18:07.158Z,95.40
2023-12-22T20:21:10.218Z,95.86
2023-12-22T20:24:13.023Z,95.85
2023-12-22T20:27:16.111Z,96.45
2023-12-22T20:30:18.529Z,96.45
2023-12-22T20:33:20.845Z,96.34
2023-12-22T20:36:23.149Z,97.00
2023-12-22T20:39:25.611Z,97.38
2023-12-22T20:42:27.901Z,97.47
2023-12-22T20:45:30.441Z,97.84
2023-12-22T20:48:32.821Z,97.73
2023-12-22T20:51:44.614Z,97.94
2023-12-22T20:54:46.961Z,98.19
2023-12-22T20:57:49.861Z,98.14
2023-12-22T21:00:52.634Z,98.31
2023-12-22T21:03:55.208Z,98.26
2023-12-22T21:06:57.902Z,98.07
2023-12-22T21:10:00.257Z,99.28
2023-12-22T21:13:02.535Z,98.74
2023-12-22T21:16:07.996Z,98.37
2023-12-22T21:19:10.407Z,98.35
2023-12-22T21:22:13.368Z,98.17
2023-12-22T21:25:17.104Z,98.15
2023-12-22T21:28:19.710Z,98.39
2023-12-22T21:31:22.036Z,98.32
2023-12-22T21:34:24.328Z,97.91
2023-12-22T21:37:26.769Z,97.80
2023-12-22T21:40:29.532Z,98.53
2023-12-22T21:43:31.811Z,98.59
2023-12-22T21:46:34.381Z,99.05
2023-12-22T21:49:39.590Z,99.02
2023-12-22T21:52:44.292Z,98.45
2023-12-22T21:55:46.921Z,98.95
2023-12-22T21:58:49.312Z,98.82
2023-12-22T22:01:52.364Z,98.64
2023-12-22T22:04:59.092Z,98.61
2023-12-22T22:08:01.665Z,98.70
2023-12-22T22:11:04.218Z,99.26
2023-12-22T22:14:18.060Z,99.81
2023-12-22T22:17:25.796Z,99.99
2023-12-22T22:20:28.993Z,99.28
2023-12-22T22:23:31.230Z,99.07
2023-12-22T22:26:33.887Z,99.02
2023-12-22T22:29:36.628Z,99.01
2023-12-22T22:32:39.193Z,99.81
2023-12-22T22:35:41.640Z,99.99
2023-12-22T22:38:44.050Z,99.99
2023-12-22T22:41:46.311Z,99.99
2023-12-22T22:44:48.585Z,99.91
2023-12-22T22:47:51.149Z,99.79
2023-12-22T22:50:54.044Z,99.99
2023-12-22T22:53:57.605Z,99.99
2023-12-22T22:57:00.485Z,99.99
2023-12-22T23:00:04.237Z,99.99
2023-12-22T23:03:06.646Z,99.99
2023-12-22T23:06:09.219Z,99.99
2023-12-22T23:09:12.024Z,99.99
2023-12-22T23:12:14.549Z,99.99
2023-12-22T23:15:17.268Z,99.99
2023-12-22T23:18:19.839Z,99.99
2023-12-22T23:21:22.344Z,99.99
2023-12-22T23:24:24.599Z,99.99
2023-12-22T23:27:27.036Z,99.99
2023-12-22T23:30:29.273Z,99.99
2023-12-22T23:33:32.274Z,99.99
2023-12-22T23:36:34.650Z,99.99
2023-12-22T23:39:36.987Z,99.99
2023-12-22T23:42:39.244Z,99.99
2023-12-22T23:45:41.640Z,99.99
2023-12-22T23:48:45.449Z,99.99
2023-12-22T23:51:48.077Z,99.99
2023-12-22T23:54:50.432Z,99.99
2023-12-22T23:57:53.083Z,99.99
